Time;durP1;ratioP1;P1;durP2;ratioP2;P2;SDS_P1;SDS_P2;PMS_P1;PMS_P2;Temp;Humidity;BMP_temperature;BMP_pressure;BME280_temperature;BME280_humidity;BME280_pressure;Samples;Min_cycle;Max_cycle;Signal;HPM_P1;HPM_P2
2023/01/24 00:02:11;;;;;;;2.17;1.98;;;;;;;;;;4997262;28;20037;-75
2023/01/24 00:04:36;;;;;;;2.25;2.05;;;;;;;;;;5001693;28;20022;-77
2023/01/24 00:07:01;;;;;;;3.28;2.63;;;;;;;;;;4998754;28;20677;-80
2023/01/24 00:09:26;;;;;;;4.15;3.17;;;;;;;;;;5004118;28;20029;-76
2023/01/24 00:11:52;;;;;;;4.75;3.90;;;;;;;;;;5003918;28;20030;-74
2023/01/24 00:14:17;;;;;;;5.55;4.57;;;;;;;;;;5002959;28;20116;-77
2023/01/24 00:16:42;;;;;;;4.03;3.05;;;;;;;;;;5001468;28;20026;-77
2023/01/24 00:19:08;;;;;;;4.22;2.90;;;;;;;;;;4997110;28;20453;-76
2023/01/24 00:21:33;;;;;;;3.30;2.65;;;;;;;;;;4997511;28;20111;-76
2023/01/24 00:23:58;;;;;;;2.45;2.05;;;;;;;;;;5004086;28;20042;-78
2023/01/24 00:26:24;;;;;;;2.35;1.95;;;;;;;;;;5002864;28;20044;-76
2023/01/24 00:28:49;;;;;;;3.22;2.25;;;;;;;;;;4995296;28;20090;-76
2023/01/24 00:31:15;;;;;;;2.03;1.77;;;;;;;;;;4994895;28;20495;-75
2023/01/24 00:33:40;;;;;;;3.63;2.50;;;;;;;;;;4998412;28;20034;-75
2023/01/24 00:36:06;;;;;;;3.25;2.65;;;;;;;;;;4995960;28;20496;-76
2023/01/24 00:38:31;;;;;;;2.38;2.00;;;;;;;;;;4996835;28;20035;-75
2023/01/24 00:40:57;;;;;;;2.78;2.33;;;;;;;;;;4998561;28;20017;-74
2023/01/24 00:43:22;;;;;;;2.05;1.85;;;;;;;;;;5000566;28;20129;-78
2023/01/24 00:45:47;;;;;;;2.53;1.88;;;;;;;;;;4997138;28;20597;-78
2023/01/24 00:48:13;;;;;;;1.95;1.75;;;;;;;;;;5000085;28;20087;-75
2023/01/24 00:50:39;;;;;;;4.10;3.03;;;;;;;;;;5003806;28;20105;-74
2023/01/24 00:53:04;;;;;;;2.58;2.38;;;;;;;;;;5000124;28;20029;-80
2023/01/24 00:55:30;;;;;;;2.65;1.90;;;;;;;;;;4996606;28;20125;-76
2023/01/24 00:57:55;;;;;;;2.28;1.60;;;;;;;;;;5001813;28;20029;-75
2023/01/24 01:00:21;;;;;;;2.55;2.22;;;;;;;;;;4993665;28;20071;-76
2023/01/24 01:02:47;;;;;;;2.72;2.10;;;;;;;;;;4995014;28;20030;-75
2023/01/24 01:05:12;;;;;;;2.60;2.28;;;;;;;;;;5002630;28;20075;-81
2023/01/24 01:07:37;;;;;;;4.25;3.38;;;;;;;;;;4997178;28;20022;-78
2023/01/24 01:10:03;;;;;;;2.15;1.88;;;;;;;;;;5003139;28;20040;-76
2023/01/24 01:12:28;;;;;;;4.60;3.35;;;;;;;;;;5003358;28;20496;-79
2023/01/24 01:14:53;;;;;;;2.30;2.10;;;;;;;;;;5003349;28;20140;-77
2023/01/24 01:17:19;;;;;;;2.30;2.10;;;;;;;;;;4998633;28;20057;-75
2023/01/24 01:19:44;;;;;;;2.53;1.90;;;;;;;;;;5000844;28;20026;-75
2023/01/24 01:22:09;;;;;;;2.58;2.10;;;;;;;;;;5003822;28;20036;-75
2023/01/24 01:24:35;;;;;;;2.47;1.80;;;;;;;;;;5002849;28;20125;-76
2023/01/24 01:27:00;;;;;;;2.03;1.83;;;;;;;;;;5002030;28;20136;-76
2023/01/24 01:29:26;;;;;;;2.33;1.70;;;;;;;;;;5002653;28;20034;-78
2023/01/24 01:31:51;;;;;;;3.85;2.58;;;;;;;;;;4996779;28;20076;-75
2023/01/24 01:34:16;;;;;;;4.10;2.85;;;;;;;;;;4998939;28;20045;-79
2023/01/24 01:36:41;;;;;;;3.53;2.10;;;;;;;;;;5004573;28;20069;-76
2023/01/24 01:39:07;;;;;;;3.88;2.60;;;;;;;;;;5006717;28;20091;-75
2023/01/24 01:41:32;;;;;;;3.08;2.25;;;;;;;;;;5006284;28;20033;-77
2023/01/24 01:47:00;;;;;;;3.47;2.70;;;;;;;;;;5005551;28;20107;-78
2023/01/24 01:49:26;;;;;;;3.33;2.65;;;;;;;;;;5007709;28;20097;-75
2023/01/24 01:51:54;;;;;;;4.65;2.97;;;;;;;;;;5006515;28;20026;-79
2023/01/24 01:54:21;;;;;;;4.18;3.25;;;;;;;;;;4995848;28;20196;-73
2023/01/24 01:56:53;;;;;;;2.05;1.85;;;;;;;;;;5006658;28;20029;-77
2023/01/24 01:59:21;;;;;;;1.70;1.58;;;;;;;;;;4999742;28;20028;-79
2023/01/24 02:01:48;;;;;;;4.38;3.63;;;;;;;;;;4996479;28;20061;-75
2023/01/24 02:04:19;;;;;;;4.60;3.70;;;;;;;;;;4995624;28;20028;-76
2023/01/24 02:06:51;;;;;;;2.33;2.00;;;;;;;;;;5003668;28;20017;-75
2023/01/24 02:09:19;;;;;;;1.83;1.70;;;;;;;;;;4998921;28;20026;-77
2023/01/24 02:11:45;;;;;;;1.95;1.58;;;;;;;;;;5001143;28;20428;-74
2023/01/24 02:16:55;;;;;;;1.40;1.30;;;;;;;;;;4995502;28;20037;-78
2023/01/24 02:19:26;;;;;;;1.30;1.20;;;;;;;;;;4999761;28;20026;-75
2023/01/24 02:21:55;;;;;;;1.48;1.38;;;;;;;;;;5003513;28;20987;-75
2023/01/24 02:24:31;;;;;;;2.20;2.00;;;;;;;;;;4999417;28;20026;-79
2023/01/24 02:26:56;;;;;;;1.60;1.30;;;;;;;;;;5005218;28;20051;-74
2023/01/24 02:29:22;;;;;;;2.58;1.90;;;;;;;;;;5005595;28;20485;-74
2023/01/24 02:31:55;;;;;;;1.13;1.00;;;;;;;;;;5005640;28;20520;-78
2023/01/24 02:34:20;;;;;;;1.92;1.73;;;;;;;;;;5003372;28;20041;-75
2023/01/24 02:36:49;;;;;;;2.15;1.83;;;;;;;;;;4999428;28;20029;-76
2023/01/24 02:39:17;;;;;;;3.10;1.95;;;;;;;;;;5002280;28;20447;-76
2023/01/24 02:41:48;;;;;;;2.17;1.70;;;;;;;;;;4996104;28;20172;-75
2023/01/24 02:44:19;;;;;;;3.03;1.92;;;;;;;;;;5004784;28;20033;-76
2023/01/24 02:46:44;;;;;;;3.17;2.00;;;;;;;;;;5005121;28;20091;-76
2023/01/24 02:49:10;;;;;;;2.50;2.08;;;;;;;;;;5005851;28;20029;-75
2023/01/24 02:54:20;;;;;;;1.80;1.60;;;;;;;;;;5005074;28;20044;-75
2023/01/24 02:59:29;;;;;;;1.17;1.08;;;;;;;;;;5004079;28;20084;-76
2023/01/24 03:01:55;;;;;;;2.13;1.52;;;;;;;;;;5004688;28;20033;-75
2023/01/24 03:04:20;;;;;;;1.63;1.33;;;;;;;;;;4996943;28;20037;-75
2023/01/24 03:06:45;;;;;;;1.33;1.23;;;;;;;;;;5002070;28;20408;-77
2023/01/24 03:09:19;;;;;;;1.38;1.27;;;;;;;;;;4996324;28;20030;-74
2023/01/24 03:11:48;;;;;;;1.38;1.27;;;;;;;;;;5005848;28;20050;-74
2023/01/24 03:36:07;;;;;;;1.30;1.20;;;;;;;;;;4998357;28;20115;-73
2023/01/24 03:41:16;;;;;;;1.10;1.00;;;;;;;;;;5004158;28;20053;-75
2023/01/24 03:43:43;;;;;;;1.30;1.17;;;;;;;;;;4997284;28;20449;-74
2023/01/24 03:46:08;;;;;;;1.25;1.10;;;;;;;;;;4993691;28;20030;-73
2023/01/24 03:48:36;;;;;;;0.70;0.70;;;;;;;;;;4999614;28;20042;-74
2023/01/24 03:53:45;;;;;;;1.10;1.00;;;;;;;;;;5004924;28;20317;-75
2023/01/24 03:56:11;;;;;;;1.08;1.00;;;;;;;;;;5003170;28;20385;-76
2023/01/24 03:58:36;;;;;;;2.67;1.50;;;;;;;;;;5003837;28;20037;-73
2023/01/24 04:01:01;;;;;;;1.50;1.40;;;;;;;;;;5004839;28;20029;-75
2023/01/24 04:03:27;;;;;;;1.98;1.70;;;;;;;;;;4998373;28;20025;-74
2023/01/24 04:05:52;;;;;;;1.33;1.13;;;;;;;;;;4993329;28;20045;-74
2023/01/24 04:08:18;;;;;;;1.40;1.20;;;;;;;;;;5001239;28;20437;-74
2023/01/24 04:10:43;;;;;;;2.90;2.60;;;;;;;;;;5004655;28;20102;-76
2023/01/24 04:13:09;;;;;;;1.15;1.05;;;;;;;;;;5003911;28;20408;-75
2023/01/24 04:15:34;;;;;;;1.13;0.90;;;;;;;;;;5002974;28;20298;-75
2023/01/24 04:18:00;;;;;;;1.05;1.02;;;;;;;;;;5003795;28;20037;-74
2023/01/24 04:20:27;;;;;;;1.10;1.00;;;;;;;;;;4993997;28;20045;-74
2023/01/24 04:22:52;;;;;;;1.42;1.00;;;;;;;;;;5003245;28;20026;-73
2023/01/24 04:25:18;;;;;;;1.10;1.00;;;;;;;;;;5004693;28;20125;-74
2023/01/24 04:27:44;;;;;;;2.70;1.95;;;;;;;;;;5003841;28;20354;-75
2023/01/24 04:30:10;;;;;;;2.17;1.48;;;;;;;;;;5004469;28;20357;-77
2023/01/24 04:32:35;;;;;;;1.58;1.10;;;;;;;;;;5003512;28;20047;-77
2023/01/24 04:35:03;;;;;;;1.30;1.20;;;;;;;;;;4997862;28;20041;-77
2023/01/24 04:37:28;;;;;;;2.20;1.75;;;;;;;;;;4996327;28;20100;-78
2023/01/24 04:39:54;;;;;;;2.50;2.13;;;;;;;;;;4995340;28;20398;-73
2023/01/24 04:42:19;;;;;;;1.27;1.17;;;;;;;;;;5003789;28;20157;-79
2023/01/24 04:44:44;;;;;;;1.23;1.05;;;;;;;;;;4993563;28;20033;-76
2023/01/24 04:47:09;;;;;;;1.23;1.10;;;;;;;;;;4996904;28;20400;-74
2023/01/24 04:49:35;;;;;;;1.63;1.50;;;;;;;;;;4997344;28;20054;-74
2023/01/24 04:52:00;;;;;;;4.32;3.67;;;;;;;;;;4992885;28;20030;-75
2023/01/24 04:54:25;;;;;;;2.00;1.70;;;;;;;;;;4989296;28;20455;-74
2023/01/24 04:56:51;;;;;;;1.02;0.93;;;;;;;;;;4991233;28;20053;-76
2023/01/24 04:59:16;;;;;;;1.73;1.40;;;;;;;;;;4991380;28;20044;-74
2023/01/24 05:01:41;;;;;;;3.40;2.60;;;;;;;;;;4991704;28;20037;-74
2023/01/24 05:04:07;;;;;;;1.73;1.50;;;;;;;;;;4991628;28;20026;-74
2023/01/24 05:06:33;;;;;;;0.90;0.90;;;;;;;;;;4990483;28;20022;-79
2023/01/24 05:08:59;;;;;;;1.38;1.27;;;;;;;;;;4998048;28;20042;-74
2023/01/24 05:11:24;;;;;;;1.40;1.30;;;;;;;;;;4997662;28;20095;-77
2023/01/24 05:13:50;;;;;;;1.52;1.27;;;;;;;;;;4993129;28;20045;-73
2023/01/24 05:16:15;;;;;;;4.95;3.45;;;;;;;;;;4999492;28;20029;-72
2023/01/24 05:18:41;;;;;;;4.93;4.03;;;;;;;;;;5003569;28;20032;-73
2023/01/24 05:21:13;;;;;;;11.65;8.60;;;;;;;;;;5003135;28;20026;-74
2023/01/24 05:23:39;;;;;;;41.25;27.58;;;;;;;;;;4996486;28;20420;-80
2023/01/24 05:26:05;;;;;;;31.30;22.13;;;;;;;;;;4995288;28;20087;-76
2023/01/24 05:28:30;;;;;;;39.15;25.48;;;;;;;;;;5002565;28;20054;-73
2023/01/24 05:30:59;;;;;;;82.45;44.30;;;;;;;;;;5002583;28;20437;-73
2023/01/24 05:33:24;;;;;;;114.15;63.55;;;;;;;;;;5001537;28;20109;-77
2023/01/24 05:35:56;;;;;;;97.30;55.95;;;;;;;;;;5003196;28;20145;-73
2023/01/24 05:38:21;;;;;;;125.07;71.10;;;;;;;;;;5000582;28;20107;-73
2023/01/24 05:40:46;;;;;;;179.30;98.30;;;;;;;;;;5001887;28;20490;-74
2023/01/24 05:43:11;;;;;;;250.30;169.10;;;;;;;;;;5003326;28;20068;-73
2023/01/24 05:45:37;;;;;;;48.58;43.33;;;;;;;;;;4997484;28;20026;-76
2023/01/24 05:48:02;;;;;;;15.45;12.75;;;;;;;;;;4988709;28;20361;-73
2023/01/24 05:50:27;;;;;;;40.65;31.00;;;;;;;;;;4989912;28;20033;-72
2023/01/24 05:52:53;;;;;;;20.58;15.52;;;;;;;;;;4988226;28;20175;-73
2023/01/24 05:55:18;;;;;;;19.70;14.95;;;;;;;;;;4988533;28;20034;-75
2023/01/24 05:57:43;;;;;;;5.45;4.95;;;;;;;;;;4987993;28;21047;-74
2023/01/24 06:00:09;;;;;;;41.95;33.05;;;;;;;;;;4989230;28;20072;-73
2023/01/24 06:02:34;;;;;;;12.73;11.43;;;;;;;;;;4988507;28;20034;-76
2023/01/24 06:05:00;;;;;;;6.68;5.97;;;;;;;;;;4987170;28;20349;-73
2023/01/24 06:07:25;;;;;;;14.52;11.20;;;;;;;;;;4988937;28;20057;-72
2023/01/24 06:09:50;;;;;;;27.05;20.63;;;;;;;;;;4988892;28;20033;-75
2023/01/24 06:12:15;;;;;;;44.75;29.25;;;;;;;;;;4990445;28;20057;-74
2023/01/24 06:14:41;;;;;;;17.95;12.52;;;;;;;;;;4990932;28;20033;-75
2023/01/24 06:17:06;;;;;;;26.63;18.17;;;;;;;;;;4990385;28;20041;-75
2023/01/24 06:19:31;;;;;;;20.08;12.85;;;;;;;;;;4992990;28;20025;-73
2023/01/24 06:22:16;;;;;;;29.83;19.92;;;;;;;;;;4995871;28;20117;-77
2023/01/24 06:24:41;;;;;;;17.05;10.93;;;;;;;;;;4995188;28;20129;-74
2023/01/24 06:27:08;;;;;;;43.00;25.02;;;;;;;;;;5004487;28;20465;-74
2023/01/24 06:29:33;;;;;;;140.68;78.70;;;;;;;;;;5005235;28;20034;-77
2023/01/24 06:32:17;;;;;;;57.97;31.52;;;;;;;;;;5003139;28;20041;-75
2023/01/24 06:34:58;;;;;;;16.60;10.35;;;;;;;;;;5003735;28;20097;-74
2023/01/24 06:37:32;;;;;;;43.08;24.17;;;;;;;;;;4999712;28;20404;-74
2023/01/24 06:39:57;;;;;;;37.33;20.20;;;;;;;;;;5003797;28;20343;-74
2023/01/24 06:42:23;;;;;;;25.98;12.77;;;;;;;;;;5005550;28;20100;-74
2023/01/24 06:44:48;;;;;;;58.50;28.05;;;;;;;;;;5004318;28;20117;-74
2023/01/24 06:47:14;;;;;;;15.85;8.27;;;;;;;;;;5004128;28;20026;-76
2023/01/24 06:49:40;;;;;;;103.25;44.63;;;;;;;;;;5004099;28;20407;-73
2023/01/24 06:52:05;;;;;;;141.23;59.33;;;;;;;;;;5002547;28;20034;-72
2023/01/24 06:54:32;;;;;;;170.48;70.50;;;;;;;;;;5005389;28;20048;-73
2023/01/24 06:56:57;;;;;;;243.55;97.28;;;;;;;;;;5004638;28;20032;-74
2023/01/24 06:59:22;;;;;;;203.13;82.85;;;;;;;;;;5004099;28;20034;-75
2023/01/24 07:01:48;;;;;;;30.13;14.82;;;;;;;;;;5004830;28;20034;-73
2023/01/24 07:04:14;;;;;;;59.63;26.88;;;;;;;;;;5003986;28;20029;-72
2023/01/24 07:06:39;;;;;;;66.15;30.33;;;;;;;;;;5002878;28;20119;-72
2023/01/24 07:09:05;;;;;;;96.30;41.33;;;;;;;;;;5004663;28;20409;-72
2023/01/24 07:11:30;;;;;;;52.88;24.40;;;;;;;;;;5005483;28;20026;-72
2023/01/24 07:13:55;;;;;;;134.93;61.70;;;;;;;;;;5004218;28;20382;-72
2023/01/24 07:16:21;;;;;;;8.95;6.35;;;;;;;;;;5004174;28;20026;-72
2023/01/24 07:18:46;;;;;;;162.02;72.97;;;;;;;;;;5004177;28;20097;-76
2023/01/24 07:21:12;;;;;;;84.38;41.08;;;;;;;;;;5003029;28;20051;-74
2023/01/24 07:23:37;;;;;;;44.60;24.05;;;;;;;;;;5004349;28;20028;-74
2023/01/24 07:26:09;;;;;;;116.32;57.25;;;;;;;;;;5005106;28;20029;-73
2023/01/24 07:28:35;;;;;;;26.80;14.43;;;;;;;;;;5003468;28;20025;-72
2023/01/24 07:31:00;;;;;;;21.15;10.93;;;;;;;;;;5002930;28;20460;-73
2023/01/24 07:33:25;;;;;;;18.90;10.52;;;;;;;;;;5004450;28;20361;-72
2023/01/24 07:35:51;;;;;;;27.25;14.80;;;;;;;;;;5004673;28;20321;-74
2023/01/24 07:38:16;;;;;;;44.55;21.20;;;;;;;;;;5004352;28;20030;-75
2023/01/24 07:40:42;;;;;;;58.75;26.25;;;;;;;;;;5004600;28;20025;-74
2023/01/24 07:43:07;;;;;;;24.95;12.45;;;;;;;;;;5003213;28;20058;-77
2023/01/24 07:45:34;;;;;;;28.13;14.70;;;;;;;;;;5003389;28;20041;-73
2023/01/24 07:48:00;;;;;;;69.82;33.38;;;;;;;;;;5003424;28;20026;-72
2023/01/24 07:50:26;;;;;;;113.78;48.22;;;;;;;;;;5002857;28;20436;-74
2023/01/24 07:52:51;;;;;;;21.70;11.30;;;;;;;;;;5004146;28;20339;-74
2023/01/24 07:55:18;;;;;;;23.50;11.43;;;;;;;;;;5002983;28;20148;-75
2023/01/24 07:57:44;;;;;;;23.17;12.90;;;;;;;;;;5004314;28;20105;-72
2023/01/24 08:00:10;;;;;;;42.22;21.05;;;;;;;;;;5003812;28;20433;-72
2023/01/24 08:02:35;;;;;;;25.33;13.65;;;;;;;;;;5003022;28;20025;-72
2023/01/24 08:05:00;;;;;;;15.63;9.85;;;;;;;;;;5003590;28;20029;-72
2023/01/24 08:07:26;;;;;;;57.85;30.80;;;;;;;;;;5002395;28;20133;-72
2023/01/24 08:09:51;;;;;;;60.90;28.98;;;;;;;;;;5003555;28;20037;-74
2023/01/24 08:12:17;;;;;;;22.67;13.10;;;;;;;;;;5002855;28;20030;-75
2023/01/24 08:14:42;;;;;;;21.15;11.55;;;;;;;;;;5002764;28;20032;-77
2023/01/24 08:17:07;;;;;;;14.98;8.98;;;;;;;;;;5003530;28;20032;-72
2023/01/24 08:19:33;;;;;;;30.58;15.82;;;;;;;;;;5003912;28;20069;-72
2023/01/24 08:21:58;;;;;;;75.00;36.55;;;;;;;;;;5004411;28;20486;-72
2023/01/24 08:24:23;;;;;;;30.75;17.98;;;;;;;;;;5002261;28;20087;-72
2023/01/24 08:26:50;;;;;;;7.22;5.13;;;;;;;;;;5003557;28;20096;-73
2023/01/24 08:29:16;;;;;;;10.77;7.47;;;;;;;;;;5003554;28;20022;-78
2023/01/24 08:31:41;;;;;;;12.60;8.35;;;;;;;;;;5001907;28;20037;-76
2023/01/24 08:34:06;;;;;;;10.32;7.88;;;;;;;;;;5002079;28;20156;-72
2023/01/24 08:36:32;;;;;;;10.75;8.00;;;;;;;;;;5003170;28;20372;-73
2023/01/24 08:38:57;;;;;;;23.63;18.48;;;;;;;;;;5001941;28;20058;-74
2023/01/24 08:41:22;;;;;;;36.50;23.67;;;;;;;;;;5001735;28;20022;-73
2023/01/24 08:43:48;;;;;;;8.82;6.40;;;;;;;;;;5004903;28;20054;-73
2023/01/24 08:46:13;;;;;;;15.30;9.65;;;;;;;;;;5005494;28;20773;-74
2023/01/24 08:48:38;;;;;;;16.75;11.63;;;;;;;;;;5003995;28;20026;-73
2023/01/24 08:51:04;;;;;;;17.40;12.68;;;;;;;;;;5003627;28;20446;-73
2023/01/24 08:53:29;;;;;;;11.35;8.20;;;;;;;;;;5002523;28;20034;-73
2023/01/24 08:55:55;;;;;;;26.15;17.10;;;;;;;;;;5005086;28;20022;-73
2023/01/24 08:58:20;;;;;;;13.35;10.23;;;;;;;;;;5004109;28;20034;-75
2023/01/24 09:00:46;;;;;;;8.13;7.30;;;;;;;;;;5003351;28;20439;-77
2023/01/24 09:03:12;;;;;;;9.95;8.32;;;;;;;;;;5004197;28;20334;-73
2023/01/24 09:05:38;;;;;;;19.38;14.40;;;;;;;;;;5003790;28;20029;-73
2023/01/24 09:08:03;;;;;;;11.85;9.30;;;;;;;;;;5002839;28;20495;-73
2023/01/24 09:10:29;;;;;;;10.10;7.88;;;;;;;;;;5003492;28;20026;-76
2023/01/24 09:12:54;;;;;;;13.93;11.63;;;;;;;;;;5002728;28;20104;-74
2023/01/24 09:15:19;;;;;;;8.48;7.32;;;;;;;;;;5002582;28;20041;-73
2023/01/24 09:17:45;;;;;;;16.20;12.55;;;;;;;;;;5003753;28;20025;-72
2023/01/24 09:20:10;;;;;;;15.75;12.63;;;;;;;;;;5003843;28;20545;-75
2023/01/24 09:22:35;;;;;;;8.02;7.22;;;;;;;;;;5003437;28;20025;-73
2023/01/24 09:25:01;;;;;;;8.73;7.93;;;;;;;;;;5003987;28;20037;-73
2023/01/24 09:27:26;;;;;;;8.80;7.38;;;;;;;;;;5004328;28;20025;-73
2023/01/24 09:29:51;;;;;;;7.32;6.03;;;;;;;;;;5003545;28;20132;-73
2023/01/24 09:32:16;;;;;;;8.20;6.65;;;;;;;;;;5003631;28;20037;-74
2023/01/24 09:34:46;;;;;;;7.65;6.63;;;;;;;;;;5002930;28;20503;-74
2023/01/24 09:37:12;;;;;;;6.65;5.32;;;;;;;;;;5003870;28;20048;-73
2023/01/24 09:39:37;;;;;;;7.25;6.05;;;;;;;;;;5005182;28;20025;-73
2023/01/24 09:42:05;;;;;;;13.77;9.90;;;;;;;;;;5003839;28;20133;-74
2023/01/24 09:44:44;;;;;;;8.35;6.43;;;;;;;;;;5002997;28;20030;-75
2023/01/24 09:47:17;;;;;;;21.05;13.75;;;;;;;;;;5004528;28;20045;-74
2023/01/24 09:49:47;;;;;;;10.60;7.80;;;;;;;;;;5004561;28;20044;-74
2023/01/24 09:52:23;;;;;;;8.75;6.57;;;;;;;;;;5003437;28;20054;-74
2023/01/24 09:54:58;;;;;;;9.98;7.75;;;;;;;;;;5006151;28;20111;-74
2023/01/24 09:57:29;;;;;;;8.60;6.47;;;;;;;;;;5007503;28;20061;-73
2023/01/24 10:00:00;;;;;;;10.52;7.85;;;;;;;;;;5008582;28;20017;-74
2023/01/24 10:02:27;;;;;;;14.25;11.13;;;;;;;;;;5008222;28;20084;-74
2023/01/24 10:04:52;;;;;;;13.30;10.68;;;;;;;;;;5007046;28;20032;-77
2023/01/24 10:07:36;;;;;;;11.93;9.82;;;;;;;;;;5005925;28;20124;-74
2023/01/24 10:10:01;;;;;;;14.80;12.00;;;;;;;;;;5008542;28;20335;-74
2023/01/24 10:12:45;;;;;;;9.10;7.88;;;;;;;;;;5006898;28;20507;-77
2023/01/24 10:15:43;;;;;;;12.23;9.43;;;;;;;;;;5006460;28;20472;-76
2023/01/24 10:18:11;;;;;;;14.30;10.50;;;;;;;;;;5005633;28;20061;-76
2023/01/24 10:20:54;;;;;;;12.80;8.93;;;;;;;;;;5006791;28;20041;-74
2023/01/24 10:23:52;;;;;;;12.60;10.20;;;;;;;;;;5006214;28;20426;-75
2023/01/24 10:26:19;;;;;;;12.65;10.68;;;;;;;;;;4997550;28;20033;-75
2023/01/24 10:28:55;;;;;;;13.38;10.73;;;;;;;;;;5006556;28;20022;-77
2023/01/24 10:31:25;;;;;;;27.35;18.92;;;;;;;;;;5006397;28;20038;-75
2023/01/24 10:33:53;;;;;;;14.93;11.82;;;;;;;;;;5021660;28;20102;-75
2023/01/24 10:36:25;;;;;;;23.58;16.70;;;;;;;;;;5008472;28;20365;-74
2023/01/24 10:38:51;;;;;;;42.60;29.48;;;;;;;;;;5006983;28;20037;-74
2023/01/24 10:41:18;;;;;;;21.83;16.70;;;;;;;;;;5004217;28;20038;-74
2023/01/24 10:43:45;;;;;;;16.48;13.75;;;;;;;;;;5005971;28;20188;-75
2023/01/24 10:46:21;;;;;;;17.33;14.23;;;;;;;;;;5007167;28;20037;-75
2023/01/24 10:48:50;;;;;;;13.13;11.57;;;;;;;;;;5005945;28;20040;-74
2023/01/24 10:51:23;;;;;;;12.57;10.30;;;;;;;;;;5006358;28;20030;-74
2023/01/24 10:53:49;;;;;;;13.35;11.60;;;;;;;;;;5005444;28;20172;-75
2023/01/24 10:56:15;;;;;;;15.25;13.07;;;;;;;;;;5005798;28;20105;-75
2023/01/24 10:58:54;;;;;;;11.30;10.15;;;;;;;;;;5004815;28;20033;-77
2023/01/24 11:01:21;;;;;;;15.70;12.13;;;;;;;;;;5005466;28;20096;-75
2023/01/24 11:03:47;;;;;;;15.80;14.10;;;;;;;;;;5003983;28;20032;-75
2023/01/24 11:06:33;;;;;;;13.80;12.05;;;;;;;;;;5007243;28;20117;-77
2023/01/24 11:09:15;;;;;;;10.73;9.43;;;;;;;;;;5005714;28;20096;-76
2023/01/24 11:11:51;;;;;;;15.65;12.30;;;;;;;;;;5005314;28;20053;-77
2023/01/24 11:14:19;;;;;;;12.00;10.57;;;;;;;;;;5005746;28;20065;-76
2023/01/24 11:16:46;;;;;;;10.88;9.77;;;;;;;;;;5006653;28;20040;-75
2023/01/24 11:19:40;;;;;;;12.05;9.93;;;;;;;;;;5005611;28;20026;-76
2023/01/24 11:22:33;;;;;;;9.32;8.40;;;;;;;;;;4965986;28;20109;-75
2023/01/24 11:24:59;;;;;;;12.00;10.73;;;;;;;;;;4965183;28;20058;-79
2023/01/24 11:27:26;;;;;;;8.93;7.97;;;;;;;;;;4964184;28;20042;-75
2023/01/24 11:30:25;;;;;;;10.10;9.10;;;;;;;;;;4964862;28;20113;-75
2023/01/24 11:32:54;;;;;;;12.45;10.52;;;;;;;;;;4906163;29;20044;-74
2023/01/24 11:35:24;;;;;;;12.32;10.75;;;;;;;;;;4907077;29;20052;-76
2023/01/24 11:38:08;;;;;;;16.83;15.05;;;;;;;;;;4907303;29;20031;-76
2023/01/24 11:40:44;;;;;;;11.65;10.25;;;;;;;;;;4906422;29;20093;-74
2023/01/24 11:43:21;;;;;;;12.30;10.93;;;;;;;;;;4904817;29;20440;-74
2023/01/24 11:45:52;;;;;;;13.65;11.98;;;;;;;;;;4905745;29;20568;-75
2023/01/24 11:48:19;;;;;;;14.48;12.98;;;;;;;;;;4906161;29;20040;-74
2023/01/24 11:51:03;;;;;;;13.35;11.80;;;;;;;;;;4906853;29;20058;-74
2023/01/24 11:53:31;;;;;;;8.52;7.22;;;;;;;;;;4905927;29;20452;-75
2023/01/24 11:56:05;;;;;;;11.70;10.55;;;;;;;;;;4905373;29;20051;-74
2023/01/24 11:58:49;;;;;;;15.75;13.27;;;;;;;;;;4924548;28;20039;-78
2023/01/24 12:01:21;;;;;;;18.00;15.55;;;;;;;;;;4943679;28;20046;-77
2023/01/24 12:04:05;;;;;;;13.57;12.18;;;;;;;;;;4943343;28;20086;-74
2023/01/24 12:06:48;;;;;;;13.90;11.02;;;;;;;;;;4940483;28;20047;-75
2023/01/24 12:09:17;;;;;;;12.82;9.50;;;;;;;;;;4994656;28;20441;-75
2023/01/24 12:11:49;;;;;;;12.50;9.80;;;;;;;;;;5004067;28;20029;-77
2023/01/24 12:14:17;;;;;;;8.00;7.20;;;;;;;;;;5005513;28;20026;-75
2023/01/24 12:16:53;;;;;;;27.38;22.88;;;;;;;;;;5004563;28;20017;-75
2023/01/24 12:19:22;;;;;;;43.30;33.17;;;;;;;;;;5003858;28;20030;-75
2023/01/24 12:21:48;;;;;;;12.48;10.30;;;;;;;;;;5003248;28;20030;-74
2023/01/24 12:24:19;;;;;;;20.15;16.15;;;;;;;;;;5004447;28;20032;-74
2023/01/24 12:26:44;;;;;;;13.15;10.57;;;;;;;;;;5004784;28;20057;-74
2023/01/24 12:29:16;;;;;;;24.92;19.27;;;;;;;;;;5003472;28;20069;-76
2023/01/24 12:32:00;;;;;;;12.70;11.27;;;;;;;;;;5004373;28;20069;-74
2023/01/24 12:34:36;;;;;;;11.15;9.20;;;;;;;;;;5005506;28;20806;-77
2023/01/24 12:37:21;;;;;;;14.95;13.45;;;;;;;;;;5003784;28;20038;-76
2023/01/24 12:39:50;;;;;;;12.98;11.25;;;;;;;;;;5003211;28;20437;-74
2023/01/24 12:42:18;;;;;;;9.27;8.35;;;;;;;;;;5004070;28;20365;-75
2023/01/24 12:44:59;;;;;;;8.85;7.95;;;;;;;;;;5003670;28;20037;-74
2023/01/24 12:47:28;;;;;;;11.73;10.10;;;;;;;;;;5002879;28;20026;-76
2023/01/24 12:50:11;;;;;;;12.43;11.07;;;;;;;;;;5002507;28;20464;-74
2023/01/24 12:52:55;;;;;;;10.38;9.38;;;;;;;;;;5003259;28;20018;-77
2023/01/24 12:55:25;;;;;;;7.60;6.82;;;;;;;;;;5004479;28;20041;-75
2023/01/24 12:57:53;;;;;;;8.35;6.93;;;;;;;;;;5003858;28;20037;-73
2023/01/24 13:00:20;;;;;;;10.05;9.02;;;;;;;;;;5003594;28;20123;-75
2023/01/24 13:02:54;;;;;;;5.38;4.85;;;;;;;;;;5003344;28;20151;-74
2023/01/24 13:05:19;;;;;;;7.70;6.90;;;;;;;;;;5002646;28;20544;-74
2023/01/24 13:08:02;;;;;;;20.10;17.10;;;;;;;;;;5003550;28;20113;-73
2023/01/24 13:10:42;;;;;;;61.90;46.72;;;;;;;;;;5004974;28;20049;-74
2023/01/24 13:13:15;;;;;;;29.75;25.83;;;;;;;;;;5003928;28;20337;-73
2023/01/24 13:15:51;;;;;;;23.25;20.92;;;;;;;;;;5004155;28;20137;-73
2023/01/24 13:18:37;;;;;;;25.42;18.65;;;;;;;;;;5002541;28;20073;-76
2023/01/24 13:21:05;;;;;;;19.10;16.23;;;;;;;;;;5003250;28;20450;-76
2023/01/24 13:23:56;;;;;;;10.27;8.30;;;;;;;;;;5004367;28;20084;-74
2023/01/24 13:26:45;;;;;;;17.20;13.00;;;;;;;;;;5000308;28;20038;-74
2023/01/24 13:29:13;;;;;;;8.57;7.23;;;;;;;;;;5001870;28;20034;-74
2023/01/24 13:31:57;;;;;;;7.40;6.47;;;;;;;;;;5003278;28;20049;-79
2023/01/24 13:34:26;;;;;;;10.40;9.25;;;;;;;;;;5004028;28;20997;-73
2023/01/24 13:36:51;;;;;;;11.85;10.70;;;;;;;;;;5003698;28;20021;-74
2023/01/24 13:39:29;;;;;;;7.70;7.00;;;;;;;;;;5005657;28;20350;-78
2023/01/24 13:42:01;;;;;;;5.55;5.00;;;;;;;;;;5001315;28;20157;-75
2023/01/24 13:44:27;;;;;;;13.70;11.82;;;;;;;;;;5002337;28;20479;-75
2023/01/24 13:47:00;;;;;;;11.77;9.82;;;;;;;;;;5001648;28;20033;-73
2023/01/24 13:49:28;;;;;;;9.13;7.35;;;;;;;;;;5003589;28;20077;-74
2023/01/24 13:51:57;;;;;;;11.82;9.10;;;;;;;;;;5003417;28;20037;-76
2023/01/24 13:54:39;;;;;;;10.20;7.72;;;;;;;;;;5001991;28;20034;-73
2023/01/24 13:57:21;;;;;;;7.45;5.45;;;;;;;;;;5001421;28;20018;-76
2023/01/24 14:00:17;;;;;;;5.90;5.30;;;;;;;;;;5002875;28;20033;-76
2023/01/24 14:02:48;;;;;;;5.53;4.80;;;;;;;;;;4976624;28;20042;-76
2023/01/24 14:05:28;;;;;;;5.50;4.55;;;;;;;;;;4974135;28;20117;-73
2023/01/24 14:08:01;;;;;;;5.00;4.50;;;;;;;;;;4976732;28;20042;-73
2023/01/24 14:10:39;;;;;;;6.85;5.82;;;;;;;;;;4976672;28;20800;-74
2023/01/24 14:13:25;;;;;;;9.65;8.65;;;;;;;;;;4976958;28;20081;-74
2023/01/24 14:15:50;;;;;;;4.95;4.55;;;;;;;;;;4965491;28;20054;-74
2023/01/24 14:18:34;;;;;;;10.57;6.88;;;;;;;;;;4977959;28;20120;-73
2023/01/24 14:21:01;;;;;;;4.15;3.42;;;;;;;;;;4974798;28;20824;-74
2023/01/24 14:23:26;;;;;;;7.80;5.32;;;;;;;;;;4976450;28;20077;-74
2023/01/24 14:25:53;;;;;;;3.65;3.33;;;;;;;;;;4973323;28;20034;-73
2023/01/24 14:28:28;;;;;;;25.02;16.27;;;;;;;;;;4974961;28;20073;-77
2023/01/24 14:30:57;;;;;;;71.63;47.72;;;;;;;;;;4974845;28;20654;-73
2023/01/24 14:33:32;;;;;;;54.80;33.08;;;;;;;;;;4967784;28;20129;-76
2023/01/24 14:35:57;;;;;;;23.77;16.63;;;;;;;;;;4967325;28;20042;-74
2023/01/24 14:38:22;;;;;;;23.35;16.65;;;;;;;;;;4982522;28;20034;-78
2023/01/24 14:40:49;;;;;;;21.88;15.82;;;;;;;;;;5006808;28;20113;-75
2023/01/24 14:43:15;;;;;;;12.73;9.88;;;;;;;;;;5006608;28;20081;-76
2023/01/24 14:45:42;;;;;;;16.10;12.48;;;;;;;;;;5007438;28;20057;-73
2023/01/24 14:48:08;;;;;;;25.25;18.38;;;;;;;;;;5006603;28;20037;-74
2023/01/24 14:50:35;;;;;;;17.33;14.25;;;;;;;;;;5007169;28;20022;-73
2023/01/24 14:53:01;;;;;;;13.73;10.52;;;;;;;;;;4995517;28;20041;-73
2023/01/24 14:55:26;;;;;;;17.23;15.38;;;;;;;;;;4991386;28;20345;-73
2023/01/24 14:57:52;;;;;;;18.25;14.93;;;;;;;;;;4994059;28;20021;-73
2023/01/24 15:00:18;;;;;;;38.22;24.45;;;;;;;;;;4992665;28;20034;-73
2023/01/24 15:03:01;;;;;;;27.73;20.05;;;;;;;;;;4993556;28;20021;-72
2023/01/24 15:05:28;;;;;;;104.15;62.92;;;;;;;;;;4992838;28;20022;-75
2023/01/24 15:07:53;;;;;;;55.85;35.38;;;;;;;;;;5004058;28;20475;-72
2023/01/24 15:10:23;;;;;;;53.13;35.83;;;;;;;;;;4998364;28;20033;-72
2023/01/24 15:12:51;;;;;;;24.90;18.30;;;;;;;;;;4988297;28;20061;-72
2023/01/24 15:15:18;;;;;;;22.73;18.80;;;;;;;;;;4990816;28;20045;-72
2023/01/24 15:17:45;;;;;;;48.35;34.67;;;;;;;;;;4992700;28;20100;-74